Time;durP1;ratioP1;P1;durP2;ratioP2;P2;SDS_P1;SDS_P2;PMS_P1;PMS_P2;Temp;Humidity;BMP_temperature;BMP_pressure;BME280_temperature;BME280_humidity;BME280_pressure;Samples;Min_cycle;Max_cycle;Signal;HPM_P1;HPM_P2
2022/05/14 00:00:24;;;;;;;18.60;6.18;;;;;;;20.59;nan;95178.28;5045682;28;20067;-85
2022/05/14 00:02:50;;;;;;;13.52;5.63;;;;;;;19.97;nan;95096.63;5057789;28;20052;-84
2022/05/14 00:05:19;;;;;;;16.48;6.55;;;;;;;20.40;nan;95184.22;5057238;28;20534;-85
2022/05/14 00:07:46;;;;;;;15.02;5.45;;;;;;;19.78;nan;95061.38;5059060;28;20071;-85
2022/05/14 00:10:13;;;;;;;16.50;5.65;;;;;;;18.86;nan;94924.56;5054493;28;20043;-85
2022/05/14 00:15:22;;;;;;;17.83;6.32;;;;;;;19.35;nan;95010.72;5060811;28;20121;-85
2022/05/14 00:17:47;;;;;;;17.98;6.30;;;;;;;19.42;nan;95029.78;5057291;28;20078;-85
2022/05/14 00:20:14;;;;;;;17.23;6.20;;;;;;;19.70;nan;95059.56;5044595;28;20521;-85
2022/05/14 00:22:40;;;;;;;12.57;5.75;;;;;;;20.03;nan;95142.94;5059195;28;20694;-85
2022/05/14 00:25:07;;;;;;;14.98;5.65;;;;;;;19.68;nan;95110.25;5078593;28;20032;-85
2022/05/14 00:27:33;;;;;;;21.02;5.65;;;;;;;19.74;nan;95119.69;5069501;28;20351;-85
2022/05/14 00:29:58;;;;;;;16.48;6.68;;;;;;;18.68;nan;95046.75;5057750;28;20160;-85
2022/05/14 00:32:24;;;;;;;15.32;5.80;;;;;;;18.56;nan;95022.47;5045276;28;20075;-85
2022/05/14 00:34:50;;;;;;;9.25;5.22;;;;;;;17.09;nan;94781.16;5073699;28;20486;-85
2022/05/14 00:37:16;;;;;;;10.18;5.82;;;;;;;18.82;nan;95046.47;5076171;28;20039;-86
2022/05/14 00:39:42;;;;;;;13.68;6.30;;;;;;;18.71;nan;95021.09;5077948;28;20048;-85
2022/05/14 00:42:08;;;;;;;10.95;6.47;;;;;;;18.26;nan;94981.44;5060090;28;20048;-85
2022/05/14 00:44:33;;;;;;;14.40;6.70;;;;;;;18.38;nan;95011.06;5043072;28;20044;-85
2022/05/14 00:47:02;;;;;;;15.82;7.18;;;;;;;19.46;nan;95185.88;5076266;28;20040;-85
2022/05/14 00:49:30;;;;;;;13.77;6.80;;;;;;;18.94;nan;95062.63;5059431;28;20044;-85
2022/05/14 00:51:55;;;;;;;13.52;7.18;;;;;;;18.70;nan;95030.28;5077911;28;20040;-85
2022/05/14 00:54:28;;;;;;;11.95;6.82;;;;;;;18.98;nan;95085.06;5074213;28;20494;-85
2022/05/14 00:56:58;;;;;;;14.80;6.88;;;;;;;17.52;nan;94869.38;5043067;28;20067;-85
2022/05/14 00:59:26;;;;;;;18.13;7.67;;;;;;;18.72;nan;95087.16;5057294;28;20186;-85
2022/05/14 01:01:52;;;;;;;12.52;7.45;;;;;;;18.67;nan;95085.47;5057610;28;20439;-85
2022/05/14 01:04:20;;;;;;;15.40;7.30;;;;;;;19.33;nan;95162.75;5056883;28;20510;-85
2022/05/14 01:07:02;;;;;;;16.58;7.10;;;;;;;18.06;nan;94991.06;5051537;28;20130;-85
2022/05/14 01:09:28;;;;;;;15.35;6.40;;;;;;;17.19;nan;94855.03;5041854;28;20046;-85
2022/05/14 01:11:55;;;;;;;16.40;7.75;;;;;;;18.75;nan;95095.34;5073063;28;20032;-85
2022/05/14 01:14:21;;;;;;;17.80;7.38;;;;;;;18.88;nan;95145.34;5039526;28;20048;-85
2022/05/14 01:16:47;;;;;;;19.73;7.50;;;;;;;18.95;nan;95142.16;5061131;28;20055;-85
2022/05/14 01:19:13;;;;;;;15.77;6.90;;;;;;;17.74;nan;94978.28;5080274;28;20480;-85
2022/05/14 01:22:15;;;;;;;17.70;7.47;;;;;;;18.68;nan;95153.41;5072976;28;20032;-85
2022/05/14 01:27:45;;;;;;;13.25;7.38;;;;;;;17.67;nan;94997.56;5076717;28;20337;-85
2022/05/14 01:30:11;;;;;;;13.88;7.07;;;;;;;18.21;nan;95056.00;5058471;28;20173;-85
2022/05/14 01:32:36;;;;;;;13.02;7.13;;;;;;;17.70;nan;94999.56;5055137;28;20055;-85
2022/05/14 01:35:02;;;;;;;17.08;7.18;;;;;;;17.91;nan;95074.00;5057543;28;20048;-84
2022/05/14 01:37:28;;;;;;;11.98;7.90;;;;;;;17.38;nan;94985.97;5038319;28;20438;-85
2022/05/14 01:39:54;;;;;;;13.40;7.28;;;;;;;18.53;nan;95149.34;5062297;28;20799;-85
2022/05/14 01:42:19;;;;;;;11.63;7.43;;;;;;;18.10;nan;95077.03;5067985;28;20040;-85
2022/05/14 01:44:45;;;;;;;15.70;7.30;;;;;;;16.54;nan;94848.94;5056128;28;20048;-85
2022/05/14 01:47:11;;;;;;;13.73;7.55;;;;;;;17.83;nan;95035.34;5066070;28;20055;-85
2022/05/14 01:49:37;;;;;;;13.38;7.22;;;;;;;18.08;nan;95095.34;5047182;28;20048;-85
2022/05/14 01:52:03;;;;;;;12.82;8.10;;;;;;;18.08;nan;95106.88;5038322;28;20048;-85
2022/05/14 01:54:28;;;;;;;14.05;7.57;;;;;;;18.53;nan;95130.53;5051776;28;20066;-84
2022/05/14 01:56:53;;;;;;;11.02;7.30;;;;;;;16.19;nan;94842.81;5055144;28;20051;-85
2022/05/14 01:59:19;;;;;;;13.05;7.47;;;;;;;17.74;nan;95040.75;5042246;28;20598;-85
2022/05/14 02:01:45;;;;;;;17.48;7.90;;;;;;;17.69;nan;95048.19;5049584;28;20060;-85
2022/05/14 02:04:13;;;;;;;12.10;7.53;;;;;;;18.10;nan;95085.09;5064266;28;20469;-85
2022/05/14 02:06:40;;;;;;;10.18;7.22;;;;;;;17.99;nan;95073.16;5052354;28;20043;-85
2022/05/14 02:09:11;;;;;;;15.15;7.85;;;;;;;17.42;nan;95017.16;5063243;28;20128;-85
2022/05/14 02:11:39;;;;;;;14.52;7.30;;;;;;;17.70;nan;95052.44;5067814;28;20570;-85
2022/05/14 02:14:05;;;;;;;17.40;7.60;;;;;;;18.23;nan;95140.47;5062241;28;20777;-85
2022/05/14 02:16:30;;;;;;;11.30;7.32;;;;;;;17.63;nan;95018.06;5051754;28;20040;-85
2022/05/14 02:18:56;;;;;;;14.70;7.32;;;;;;;17.78;nan;95032.84;5064773;28;20048;-85
2022/05/14 02:21:24;;;;;;;17.92;8.32;;;;;;;17.82;nan;95097.38;5053272;28;20044;-85
2022/05/14 02:23:51;;;;;;;16.17;7.40;;;;;;;18.29;nan;95141.88;5068586;28;20307;-85
2022/05/14 02:26:17;;;;;;;15.55;7.80;;;;;;;16.10;nan;94787.75;5050029;28;20477;-85
2022/05/14 02:28:43;;;;;;;16.33;8.18;;;;;;;17.32;nan;94978.09;5057436;28;20468;-85
2022/05/14 02:31:09;;;;;;;18.40;7.75;;;;;;;17.79;nan;95065.81;5048578;28;20040;-85
2022/05/14 02:33:35;;;;;;;12.50;7.72;;;;;;;17.47;nan;95008.94;5037654;28;20505;-85
2022/05/14 02:36:01;;;;;;;15.10;7.72;;;;;;;17.39;nan;95019.72;5037958;28;20396;-85
2022/05/14 02:38:30;;;;;;;13.88;7.90;;;;;;;17.17;nan;94992.00;5073480;28;20516;-85
2022/05/14 02:40:57;;;;;;;12.60;7.50;;;;;;;17.74;nan;95075.63;5057814;28;20040;-85
2022/05/14 02:43:24;;;;;;;15.68;7.60;;;;;;;17.73;nan;95092.81;5058181;28;20382;-85
2022/05/14 02:45:50;;;;;;;18.63;8.50;;;;;;;17.00;nan;94972.50;5079054;28;20086;-85
2022/05/14 02:48:15;;;;;;;14.77;7.97;;;;;;;17.36;nan;95031.84;5079658;28;20115;-85
2022/05/14 02:50:41;;;;;;;17.58;8.20;;;;;;;17.58;nan;95028.94;5054612;28;20052;-86
2022/05/14 02:53:06;;;;;;;13.60;8.65;;;;;;;17.97;nan;95097.63;5058201;28;20156;-85
2022/05/14 02:55:32;;;;;;;10.75;8.25;;;;;;;17.12;nan;94994.84;5047465;28;20135;-85
2022/05/14 02:57:57;;;;;;;18.70;7.95;;;;;;;17.66;nan;95043.47;5061736;28;20036;-85
2022/05/14 03:00:23;;;;;;;17.55;8.13;;;;;;;18.26;nan;95141.72;5060999;28;20098;-85
2022/05/14 03:02:49;;;;;;;20.63;8.88;;;;;;;17.46;nan;95036.09;5048707;28;20597;-85
2022/05/14 03:05:17;;;;;;;19.08;8.63;;;;;;;17.71;nan;95137.94;5054192;28;20048;-85
2022/05/14 03:07:43;;;;;;;23.52;8.80;;;;;;;17.56;nan;95110.81;5080347;28;20079;-85
2022/05/14 03:10:09;;;;;;;17.27;7.88;;;;;;;15.61;nan;94776.47;5079329;28;20576;-85
2022/05/14 03:12:35;;;;;;;14.55;8.18;;;;;;;17.51;nan;95065.41;5079558;28;20104;-85
2022/05/14 03:15:05;;;;;;;15.27;8.70;;;;;;;16.89;nan;95001.50;5061111;28;20044;-85
2022/05/14 03:17:34;;;;;;;15.32;8.40;;;;;;;17.89;nan;95119.13;5041194;28;20446;-85
2022/05/14 03:20:01;;;;;;;22.98;8.60;;;;;;;17.50;nan;95050.41;5041926;28;20086;-85
2022/05/14 03:22:26;;;;;;;13.77;8.43;;;;;;;17.75;nan;95081.78;5077392;28;20036;-85
2022/05/14 03:24:52;;;;;;;23.25;8.65;;;;;;;18.21;nan;95158.00;5061299;28;20047;-85
2022/05/14 03:27:17;;;;;;;15.05;8.85;;;;;;;16.83;nan;94931.25;5079462;28;20045;-85
2022/05/14 03:29:43;;;;;;;24.27;8.77;;;;;;;16.66;nan;94942.00;5060605;28;20040;-85
2022/05/14 03:32:10;;;;;;;14.48;8.70;;;;;;;15.82;nan;94824.75;5053395;28;20056;-85
2022/05/14 03:34:36;;;;;;;14.50;8.35;;;;;;;17.34;nan;95053.59;5050591;28;20371;-85
2022/05/14 03:37:03;;;;;;;20.88;9.20;;;;;;;17.42;nan;95105.63;5061271;28;20423;-85
2022/05/14 03:39:28;;;;;;;18.25;9.15;;;;;;;16.16;nan;94864.88;5079526;28;20048;-85
2022/05/14 03:41:54;;;;;;;12.27;8.13;;;;;;;16.68;nan;94953.19;5068388;28;20152;-85
2022/05/14 03:44:20;;;;;;;17.33;9.65;;;;;;;17.92;nan;95119.28;5041545;28;20210;-85
2022/05/14 03:46:46;;;;;;;14.32;8.43;;;;;;;17.67;nan;95083.38;5041180;28;20066;-86
2022/05/14 03:49:12;;;;;;;17.35;8.88;;;;;;;17.19;nan;94997.84;5055857;28;20079;-86
2022/05/14 03:51:37;;;;;;;24.98;9.63;;;;;;;18.10;nan;95168.28;5056238;28;20502;-85
2022/05/14 03:54:04;;;;;;;18.27;8.15;;;;;;;17.47;nan;95142.22;5052981;28;20104;-86
2022/05/14 03:56:30;;;;;;;20.00;8.95;;;;;;;17.54;nan;95097.75;5048952;28;20515;-86
2022/05/14 03:58:56;;;;;;;13.90;8.90;;;;;;;15.42;nan;94783.97;5077525;28;20179;-86
2022/05/14 04:01:21;;;;;;;25.48;10.48;;;;;;;16.21;nan;94936.16;5039265;28;20060;-86
2022/05/14 04:03:47;;;;;;;20.60;8.75;;;;;;;17.38;nan;95061.81;5042983;28;20052;-86
2022/05/14 04:06:12;;;;;;;19.88;9.20;;;;;;;17.02;nan;95008.56;5078546;28;20100;-86
2022/05/14 04:08:39;;;;;;;19.00;8.75;;;;;;;17.21;nan;95046.53;5079305;28;20430;-85
2022/05/14 04:11:05;;;;;;;15.98;8.45;;;;;;;17.65;nan;95093.63;5078996;28;20085;-86
2022/05/14 04:13:31;;;;;;;23.05;9.25;;;;;;;17.43;nan;95063.53;5078655;28;20139;-86
2022/05/14 04:15:57;;;;;;;19.48;9.57;;;;;;;17.28;nan;95070.19;5078923;28;20047;-85
2022/05/14 04:18:25;;;;;;;23.25;9.18;;;;;;;17.03;nan;95039.63;5076647;28;20032;-85
2022/05/14 04:20:56;;;;;;;23.48;10.02;;;;;;;18.19;nan;95185.16;5078697;28;20067;-85
2022/05/14 04:23:23;;;;;;;15.98;8.90;;;;;;;17.26;nan;95094.63;5078928;28;20051;-85
2022/05/14 04:25:50;;;;;;;18.15;8.85;;;;;;;15.55;nan;94809.03;5059496;28;20529;-85
2022/05/14 04:28:17;;;;;;;17.45;9.73;;;;;;;18.33;nan;95190.31;5059807;28;20059;-85
2022/05/14 04:30:42;;;;;;;16.35;9.15;;;;;;;17.88;nan;95126.38;5059960;28;20048;-85
2022/05/14 04:33:08;;;;;;;26.67;9.98;;;;;;;16.98;nan;94970.94;5060305;28;20040;-85
2022/05/14 04:35:34;;;;;;;17.90;9.98;;;;;;;17.54;nan;95057.53;5077476;28;20047;-85
2022/05/14 04:37:59;;;;;;;17.50;9.68;;;;;;;14.55;nan;94566.03;5057705;28;20370;-85
2022/05/14 04:40:24;;;;;;;17.60;10.40;;;;;;;16.44;nan;94857.28;5057138;28;20369;-85
2022/05/14 04:42:50;;;;;;;20.38;10.85;;;;;;;18.15;nan;95140.50;5058344;28;20098;-85
2022/05/14 04:45:15;;;;;;;29.13;10.48;;;;;;;16.26;nan;94836.19;5044043;28;20044;-86
2022/05/14 04:47:41;;;;;;;18.48;10.02;;;;;;;18.15;nan;95140.50;5077737;28;20101;-85
2022/05/14 04:50:09;;;;;;;26.65;11.13;;;;;;;18.71;nan;95209.13;5078418;28;20195;-85
2022/05/14 04:52:34;;;;;;;26.50;10.45;;;;;;;18.19;nan;95128.00;5051241;28;20036;-85
2022/05/14 04:54:59;;;;;;;27.45;11.10;;;;;;;16.59;nan;94858.66;5039357;28;20094;-86
2022/05/14 04:57:25;;;;;;;17.88;9.80;;;;;;;16.59;nan;94859.44;5045829;28;20040;-85
2022/05/14 04:59:52;;;;;;;17.48;9.85;;;;;;;17.78;nan;95067.69;5067205;28;20630;-85
2022/05/14 05:05:03;;;;;;;25.58;11.25;;;;;;;18.38;nan;95129.19;5074091;28;20137;-85
2022/05/14 05:07:28;;;;;;;19.10;10.20;;;;;;;18.63;nan;95189.28;5060157;28;20044;-85
2022/05/14 05:09:54;;;;;;;21.02;10.13;;;;;;;17.12;nan;94946.63;5040559;28;20041;-85
2022/05/14 05:12:19;;;;;;;15.50;9.27;;;;;;;15.76;nan;94711.06;5055086;28;20046;-84
2022/05/14 05:14:45;;;;;;;20.23;8.77;;;;;;;19.04;nan;95236.94;5076483;28;20048;-85
2022/05/14 05:17:11;;;;;;;20.13;9.60;;;;;;;18.48;nan;95131.50;5075363;28;20755;-86
2022/05/14 05:19:36;;;;;;;28.42;11.95;;;;;;;17.92;nan;95067.50;5055474;28;20550;-85
2022/05/14 05:22:02;;;;;;;21.52;11.40;;;;;;;18.32;nan;95140.41;5061749;28;20047;-85
2022/05/14 05:24:27;;;;;;;19.70;9.20;;;;;;;18.65;nan;95184.38;5068040;28;20036;-85
2022/05/14 05:26:53;;;;;;;18.75;9.63;;;;;;;18.09;nan;95078.16;5056882;28;20494;-85
2022/05/14 05:29:18;;;;;;;18.52;10.10;;;;;;;19.04;nan;95236.94;5039334;28;20434;-85
2022/05/14 05:31:44;;;;;;;14.57;8.82;;;;;;;18.58;nan;95169.88;5057992;28;20110;-85
2022/05/14 05:34:09;;;;;;;19.10;8.73;;;;;;;17.31;nan;94952.41;5069082;28;20216;-85
2022/05/14 05:36:35;;;;;;;14.82;8.98;;;;;;;16.25;nan;94787.25;5059095;28;20821;-85
2022/05/14 05:39:00;;;;;;;20.05;10.55;;;;;;;17.25;nan;94979.69;5056932;28;20044;-84
2022/05/14 05:41:26;;;;;;;19.23;10.48;;;;;;;18.31;nan;95192.56;5058560;28;20048;-85
2022/05/14 05:43:51;;;;;;;24.70;10.50;;;;;;;18.58;nan;95207.47;5055297;28;20044;-85
2022/05/14 05:46:17;;;;;;;20.95;10.73;;;;;;;18.56;nan;95193.53;5040609;28;20036;-85
2022/05/14 05:48:44;;;;;;;22.90;11.18;;;;;;;19.19;nan;95241.75;5039612;28;20044;-85
2022/05/14 05:51:10;;;;;;;26.73;10.70;;;;;;;18.91;nan;95196.88;5092133;28;20043;-85
2022/05/14 05:59:06;;;;;;;25.02;10.63;;;;;;;19.31;nan;95242.94;5057056;28;20055;-85
2022/05/14 06:01:31;;;;;;;22.55;11.15;;;;;;;18.87;nan;95183.28;5066979;28;20060;-85
2022/05/14 06:03:57;;;;;;;32.08;12.18;;;;;;;18.97;nan;95172.19;5057859;28;20074;-85
2022/05/14 06:06:23;;;;;;;22.63;11.93;;;;;;;18.64;nan;95107.59;5062101;28;20087;-85
2022/05/14 06:08:49;;;;;;;26.83;11.73;;;;;;;18.62;nan;95082.94;5038200;28;20052;-85
2022/05/14 06:11:16;;;;;;;20.38;11.05;;;;;;;19.06;nan;95156.00;5055116;28;20525;-85
2022/05/14 06:13:43;;;;;;;26.00;11.80;;;;;;;18.65;nan;95068.09;5058643;28;20534;-85
2022/05/14 06:16:11;;;;;;;26.60;12.05;;;;;;;19.34;nan;95191.19;5053677;28;20067;-85
2022/05/14 06:18:42;;;;;;;22.80;11.00;;;;;;;19.82;nan;95282.16;5038701;28;20076;-85
2022/05/14 06:21:09;;;;;;;21.17;11.65;;;;;;;20.00;nan;95254.75;5045110;28;20054;-86
2022/05/14 06:23:34;;;;;;;23.60;11.25;;;;;;;20.11;nan;95252.44;5057882;28;20418;-86
2022/05/14 06:26:00;;;;;;;27.45;11.68;;;;;;;19.81;nan;95222.19;5044578;28;20036;-85
2022/05/14 06:28:26;;;;;;;24.73;12.77;;;;;;;20.04;nan;95238.75;5058721;28;20056;-85
2022/05/14 06:30:51;;;;;;;20.58;12.15;;;;;;;19.14;nan;95128.28;5052623;28;20052;-85
2022/05/14 06:33:17;;;;;;;20.88;11.98;;;;;;;19.94;nan;95225.69;5059087;28;20040;-85
2022/05/14 06:35:43;;;;;;;21.30;11.38;;;;;;;19.75;nan;95158.13;5069348;28;20478;-85
2022/05/14 06:38:14;;;;;;;23.73;12.40;;;;;;;19.81;nan;95157.59;5060322;28;20059;-85
2022/05/14 06:40:40;;;;;;;19.23;11.60;;;;;;;20.09;nan;95173.91;5051752;28;20044;-86
2022/05/14 06:43:06;;;;;;;24.17;12.18;;;;;;;19.93;nan;95146.84;5058517;28;20044;-86
2022/05/14 06:45:32;;;;;;;27.27;12.35;;;;;;;20.68;nan;95251.69;5059030;28;20538;-85
2022/05/14 06:47:58;;;;;;;20.73;11.93;;;;;;;18.96;nan;94977.13;5045671;28;20067;-85
2022/05/14 06:50:25;;;;;;;26.55;11.93;;;;;;;20.63;nan;95230.38;5073569;28;20386;-86
2022/05/14 06:52:57;;;;;;;22.95;12.40;;;;;;;20.75;nan;95252.72;5060258;28;20906;-86
2022/05/14 06:55:26;;;;;;;24.25;11.82;;;;;;;20.69;nan;95253.28;5059193;28;20041;-85
2022/05/14 06:57:52;;;;;;;20.05;11.18;;;;;;;18.89;nan;94947.31;5062962;28;20043;-85
2022/05/14 07:00:19;;;;;;;24.17;11.63;;;;;;;18.44;nan;94853.25;5078170;28;20040;-85
2022/05/14 07:02:46;;;;;;;24.70;11.77;;;;;;;20.10;nan;95078.56;5079646;28;20454;-86
2022/05/14 07:07:57;;;;;;;27.70;11.38;;;;;;;21.08;nan;95195.19;5061268;28;20044;-85
2022/05/14 07:10:23;;;;;;;25.30;11.38;;;;;;;21.69;nan;95254.47;5058907;28;20402;-85
2022/05/14 07:12:49;;;;;;;27.42;11.00;;;;;;;21.07;nan;95156.66;5049407;28;20446;-86
2022/05/14 07:15:15;;;;;;;21.20;11.10;;;;;;;20.91;nan;95104.56;5047635;28;20072;-86
2022/05/14 07:17:41;;;;;;;15.93;10.38;;;;;;;21.58;nan;95262.25;5058305;28;20609;-86
2022/05/14 07:20:07;;;;;;;26.23;10.90;;;;;;;20.71;nan;95129.78;5057987;28;20477;-85
2022/05/14 07:22:33;;;;;;;20.98;11.20;;;;;;;20.61;nan;95131.00;5078822;28;20048;-86
2022/05/14 07:24:58;;;;;;;38.00;12.20;;;;;;;21.14;nan;95210.81;5060605;28;20043;-85
2022/05/14 07:27:24;;;;;;;22.92;11.32;;;;;;;20.36;nan;95056.75;5074399;28;20036;-85
2022/05/14 07:29:50;;;;;;;26.98;10.95;;;;;;;19.36;nan;94931.63;5041830;28;20041;-86
2022/05/14 07:32:18;;;;;;;25.27;12.00;;;;;;;21.48;nan;95255.41;5062486;28;20067;-85
2022/05/14 07:34:44;;;;;;;24.50;10.90;;;;;;;21.20;nan;95183.66;5079105;28;20592;-85
2022/05/14 07:37:13;;;;;;;22.75;10.68;;;;;;;22.00;nan;95260.00;5064597;28;20037;-85
2022/05/14 07:39:53;;;;;;;23.58;10.35;;;;;;;21.04;nan;95181.63;5041831;28;20051;-85
2022/05/14 07:42:28;;;;;;;16.50;10.15;;;;;;;20.59;nan;95106.34;5041243;28;20543;-85
2022/05/14 07:44:57;;;;;;;25.80;10.15;;;;;;;21.26;nan;95191.16;5041772;28;20068;-86
2022/05/14 07:47:23;;;;;;;22.40;10.65;;;;;;;21.02;nan;95148.81;5066170;28;20335;-85
2022/05/14 07:49:50;;;;;;;23.77;10.45;;;;;;;21.50;nan;95249.69;5064082;28;20032;-84
2022/05/14 07:52:17;;;;;;;19.55;10.07;;;;;;;21.81;nan;95268.72;5076952;28;20064;-85
2022/05/14 07:54:43;;;;;;;17.95;10.23;;;;;;;21.31;nan;95190.94;5081401;28;20835;-85
2022/05/14 07:57:08;;;;;;;16.02;10.43;;;;;;;21.45;nan;95180.53;5075831;28;20130;-85
2022/05/14 07:59:35;;;;;;;32.15;11.32;;;;;;;21.39;nan;95140.66;5040740;28;20048;-86
2022/05/14 08:02:05;;;;;;;18.05;9.98;;;;;;;22.13;nan;95233.72;5042951;28;20304;-85
2022/05/14 08:04:32;;;;;;;24.17;11.68;;;;;;;21.94;nan;95188.47;5057283;28;20127;-85
2022/05/14 08:06:59;;;;;;;27.98;11.93;;;;;;;21.81;nan;95149.94;5049331;28;20048;-86
2022/05/14 08:09:25;;;;;;;31.25;11.02;;;;;;;22.20;nan;95185.31;5041145;28;20327;-85
2022/05/14 08:11:52;;;;;;;18.55;11.20;;;;;;;22.23;nan;95201.59;5072239;28;20048;-85
2022/05/14 08:14:19;;;;;;;23.50;11.52;;;;;;;21.98;nan;95153.47;5048707;28;20465;-85
2022/05/14 08:16:44;;;;;;;23.30;12.10;;;;;;;22.43;nan;95180.88;5057299;28;20040;-86
2022/05/14 08:19:10;;;;;;;24.70;10.45;;;;;;;22.94;nan;95232.34;5041923;28;20418;-85
2022/05/14 08:24:32;;;;;;;26.08;10.40;;;;;;;22.94;nan;95211.50;5073953;28;20047;-85
2022/05/14 08:27:05;;;;;;;27.15;10.70;;;;;;;22.46;nan;95133.47;5065255;28;20578;-85
2022/05/14 08:29:32;;;;;;;26.15;10.95;;;;;;;22.55;nan;95144.88;5051725;28;20059;-85
2022/05/14 08:31:57;;;;;;;19.70;10.57;;;;;;;21.68;nan;95018.88;5051185;28;20449;-85
2022/05/14 08:34:23;;;;;;;21.85;11.25;;;;;;;23.35;nan;95228.25;5076723;28;20553;-85
2022/05/14 08:36:48;;;;;;;21.63;10.40;;;;;;;23.49;nan;95227.84;5064045;28;20049;-85
2022/05/14 08:39:16;;;;;;;20.30;10.40;;;;;;;22.91;nan;95146.50;5040849;28;20040;-86
2022/05/14 08:41:44;;;;;;;18.85;9.90;;;;;;;23.60;nan;95245.06;5071312;28;20449;-85
2022/05/14 08:44:14;;;;;;;14.63;9.48;;;;;;;23.36;nan;95251.47;5059597;28;20044;-85
2022/05/14 08:46:43;;;;;;;18.10;9.48;;;;;;;22.39;nan;95119.78;5057787;28;20040;-84
2022/05/14 08:49:20;;;;;;;21.88;9.02;;;;;;;22.77;nan;95190.22;5058569;28;20645;-85
2022/05/14 08:51:49;;;;;;;29.00;11.52;;;;;;;22.83;nan;95169.13;5073117;28;20135;-85
2022/05/14 08:54:15;;;;;;;23.05;10.68;;;;;;;22.92;nan;95148.09;5054014;28;20129;-85
2022/05/14 08:57:12;;;;;;;18.73;10.50;;;;;;;23.60;nan;95235.03;5046052;28;20586;-85
2022/05/14 08:59:40;;;;;;;13.43;9.25;;;;;;;23.75;nan;95234.19;5064443;28;20105;-86
2022/05/14 09:02:14;;;;;;;23.02;10.02;;;;;;;22.99;nan;95149.03;5064258;28;20119;-85
2022/05/14 09:04:42;;;;;;;21.15;10.48;;;;;;;23.17;nan;95164.88;5078193;28;20539;-85
2022/05/14 09:07:08;;;;;;;20.40;9.18;;;;;;;23.90;nan;95242.59;5041024;28;20468;-85
2022/05/14 09:09:34;;;;;;;16.02;9.27;;;;;;;21.95;nan;94926.22;5075298;28;20441;-86
2022/05/14 09:12:03;;;;;;;17.70;9.60;;;;;;;23.35;nan;95152.47;5039612;28;20287;-86
2022/05/14 09:14:36;;;;;;;28.08;10.73;;;;;;;24.23;nan;95256.44;5059888;28;20056;-85
2022/05/14 09:17:20;;;;;;;20.33;10.48;;;;;;;23.76;nan;95156.44;5075864;28;20550;-86
2022/05/14 09:19:47;;;;;;;18.30;9.43;;;;;;;24.77;nan;95258.19;5059148;28;20502;-85
2022/05/14 09:22:22;;;;;;;20.30;9.20;;;;;;;24.82;nan;95247.03;5075544;28;20804;-85
2022/05/14 09:25:05;;;;;;;21.40;9.85;;;;;;;24.79;nan;95218.72;5072297;28;20531;-85
2022/05/14 09:28:08;;;;;;;24.15;9.65;;;;;;;24.94;nan;95176.38;5059781;28;20118;-85
2022/05/14 09:30:54;;;;;;;24.88;9.50;;;;;;;25.58;nan;95248.66;5042747;28;20060;-85
2022/05/14 09:33:42;;;;;;;21.05;8.80;;;;;;;25.23;nan;95159.34;5052380;28;20041;-86
2022/05/14 09:36:15;;;;;;;20.30;10.23;;;;;;;24.51;nan;95055.56;5040353;28;20574;-85
2022/05/14 09:38:42;;;;;;;17.60;9.40;;;;;;;25.33;nan;95239.34;5075925;28;20051;-84
2022/05/14 09:41:18;;;;;;;26.52;9.00;;;;;;;24.16;nan;95124.31;5062217;28;20045;-87
2022/05/14 09:43:44;;;;;;;16.15;8.77;;;;;;;24.04;nan;95110.91;5051834;28;20048;-88
2022/05/14 09:46:23;;;;;;;33.80;8.63;;;;;;;24.28;nan;95149.69;5040061;28;20760;-86
2022/05/14 09:48:52;;;;;;;20.08;8.63;;;;;;;24.84;nan;95176.94;5040249;28;20135;-86
2022/05/14 09:51:28;;;;;;;17.92;8.30;;;;;;;25.87;nan;95240.88;5076358;28;20094;-86
2022/05/14 09:53:55;;;;;;;17.90;8.27;;;;;;;25.15;nan;95140.59;5068774;28;20129;-86
2022/05/14 09:56:47;;;;;;;11.32;7.40;;;;;;;25.68;nan;95245.31;5059668;28;20040;-85
2022/05/14 09:59:33;;;;;;;9.55;7.00;;;;;;;25.20;nan;95259.69;5074699;28;20051;-86
2022/05/14 10:02:19;;;;;;;16.50;7.03;;;;;;;24.96;nan;95274.44;5060565;28;20052;-86
2022/05/14 10:05:06;;;;;;;14.73;8.48;;;;;;;24.56;nan;95262.09;5074411;28;20641;-86
2022/05/14 10:07:51;;;;;;;9.75;7.30;;;;;;;23.26;nan;95082.38;5053085;28;20144;-86
2022/05/14 10:10:34;;;;;;;12.90;7.72;;;;;;;24.34;nan;95245.78;5037760;28;20600;-86
2022/05/14 10:13:12;;;;;;;15.52;8.10;;;;;;;23.60;nan;95134.88;5050814;28;20044;-86
2022/05/14 10:15:49;;;;;;;11.98;8.18;;;;;;;24.32;nan;95277.91;5050957;28;20072;-86
2022/05/14 10:18:21;;;;;;;12.93;7.85;;;;;;;24.25;nan;95275.06;5051184;28;20563;-86
2022/05/14 10:20:46;;;;;;;15.65;9.02;;;;;;;24.25;nan;95275.06;5067446;28;20052;-86
2022/05/14 10:27:03;;;;;;;13.93;8.15;;;;;;;25.01;nan;95265.22;5062047;28;20040;-86
2022/05/14 10:30:15;;;;;;;19.23;8.57;;;;;;;25.96;nan;95263.09;5037208;28;20561;-87
2022/05/14 10:32:42;;;;;;;17.08;7.18;;;;;;;26.47;nan;95200.81;5043457;28;20044;-87
2022/05/14 10:35:26;;;;;;;16.48;7.85;;;;;;;27.66;nan;95226.63;5057242;28;20363;-86
2022/05/14 10:37:55;;;;;;;17.80;7.22;;;;;;;28.14;nan;95210.09;5065670;28;20530;-86
2022/05/14 10:40:28;;;;;;;16.63;7.07;;;;;;;29.15;nan;95267.97;5066730;28;20497;-86
2022/05/14 10:42:53;;;;;;;16.25;7.25;;;;;;;29.20;nan;95264.88;5059383;28;20398;-87
2022/05/14 10:45:21;;;;;;;16.02;7.80;;;;;;;29.26;nan;95267.97;5060253;28;20033;-87
2022/05/14 10:48:00;;;;;;;25.88;8.38;;;;;;;28.37;nan;95186.03;5055251;28;20186;-86
2022/05/14 10:50:29;;;;;;;52.35;13.15;;;;;;;27.04;nan;95146.88;5074767;28;20573;-86
2022/05/14 10:52:56;;;;;;;16.35;8.23;;;;;;;27.37;nan;95261.06;5058177;28;20050;-86
2022/05/14 10:55:35;;;;;;;17.65;7.47;;;;;;;25.95;nan;95121.03;5075809;28;20124;-86
2022/05/14 10:58:07;;;;;;;11.60;6.25;;;;;;;25.95;nan;95243.31;5067820;28;20115;-86
2022/05/14 11:00:42;;;;;;;11.52;8.13;;;;;;;25.26;nan;95209.38;5046337;28;20179;-86
2022/05/14 11:03:21;;;;;;;12.00;8.65;;;;;;;25.22;nan;95236.47;5056905;28;20510;-86
2022/05/14 11:05:54;;;;;;;13.35;9.27;;;;;;;23.17;nan;94943.03;5076647;28;20049;-85
2022/05/14 11:08:47;;;;;;;18.80;10.00;;;;;;;25.12;nan;95233.59;5060627;28;20131;-86
2022/05/14 11:11:23;;;;;;;22.35;13.63;;;;;;;24.75;nan;95150.06;5057797;28;20033;-87
2022/05/14 11:13:59;;;;;;;26.55;13.90;;;;;;;25.85;nan;95229.59;5048976;28;20521;-87
2022/05/14 11:16:37;;;;;;;22.48;12.93;;;;;;;26.01;nan;95201.09;5081401;28;20047;-87
2022/05/14 11:19:04;;;;;;;19.77;14.02;;;;;;;26.54;nan;95205.53;5078403;28;20044;-86
2022/05/14 11:21:49;;;;;;;22.35;12.25;;;;;;;26.19;nan;95108.06;5080087;28;20044;-87
2022/05/14 11:24:16;;;;;;;15.23;9.98;;;;;;;25.12;nan;94994.81;5062120;28;20816;-86
2022/05/14 11:26:51;;;;;;;21.25;11.05;;;;;;;26.59;nan;95129.81;5058098;28;20052;-87
2022/05/14 11:29:27;;;;;;;19.50;10.70;;;;;;;27.58;nan;95225.81;5062539;28;20485;-86
2022/05/14 11:32:12;;;;;;;20.33;8.98;;;;;;;27.95;nan;95230.25;5079184;28;20048;-85
2022/05/14 11:34:51;;;;;;;15.75;8.60;;;;;;;28.03;nan;95178.13;5079377;28;20036;-86
2022/05/14 11:37:33;;;;;;;15.60;8.07;;;;;;;27.06;nan;94984.75;5061041;28;20143;-86
2022/05/14 11:40:12;;;;;;;14.55;6.85;;;;;;;27.89;nan;95047.25;5061145;28;20048;-87
2022/05/14 11:42:37;;;;;;;14.73;7.00;;;;;;;27.95;nan;94982.22;5057352;28;20050;-86
2022/05/14 11:45:27;;;;;;;15.02;7.53;;;;;;;28.30;nan;94967.84;5061720;28;20044;-86
2022/05/14 11:48:09;;;;;;;10.27;6.80;;;;;;;30.14;nan;95209.63;5078538;28;20155;-86
2022/05/14 11:50:52;;;;;;;12.13;6.03;;;;;;;30.38;nan;95214.19;5060004;28;20054;-86
2022/05/14 11:53:24;;;;;;;9.32;6.93;;;;;;;29.94;nan;95138.25;5077794;28;20568;-86
2022/05/14 11:56:07;;;;;;;16.83;6.72;;;;;;;30.35;nan;95121.22;5064815;28;20583;-86
2022/05/14 11:59:17;;;;;;;16.17;6.90;;;;;;;29.91;nan;95076.91;5040624;28;20054;-87
2022/05/14 12:01:47;;;;;;;14.27;7.30;;;;;;;30.48;nan;95177.78;4981297;28;20054;-86
2022/05/14 12:04:39;;;;;;;13.80;7.72;;;;;;;29.30;nan;95086.53;5004645;28;20084;-85
2022/05/14 12:07:31;;;;;;;16.50;7.47;;;;;;;29.89;nan;95196.06;5042740;28;20546;-86
2022/05/14 12:10:09;;;;;;;13.90;8.38;;;;;;;29.73;nan;95218.38;5041081;28;20131;-86
2022/05/14 12:12:38;;;;;;;14.45;7.05;;;;;;;29.87;nan;95223.00;5060318;28;20095;-86